Time;durP1;ratioP1;P1;durP2;ratioP2;P2;SDS_P1;SDS_P2;PMS_P1;PMS_P2;Temp;Humidity;BMP_temperature;BMP_pressure;BME280_temperature;BME280_humidity;BME280_pressure;Samples;Min_cycle;Max_cycle;Signal;HPM_P1;HPM_P2
2023/05/22 00:02:14;;;;;;;27.83;19.73;;;20.20;96.20;;;;;;4947293;29;20033;-73
2023/05/22 00:04:40;;;;;;;23.70;19.65;;;20.10;96.60;;;;;;4935322;29;20103;-75
2023/05/22 00:07:06;;;;;;;30.58;24.10;;;20.00;96.70;;;;;;4935879;29;20034;-74
2023/05/22 00:09:31;;;;;;;24.83;17.23;;;20.00;96.50;;;;;;4934787;29;20451;-74
2023/05/22 00:11:57;;;;;;;25.70;19.95;;;19.90;96.40;;;;;;4948201;29;20031;-74
2023/05/22 00:14:23;;;;;;;18.50;14.63;;;19.80;96.60;;;;;;4935051;29;20035;-74
2023/05/22 00:16:49;;;;;;;29.85;23.80;;;19.70;96.50;;;;;;4947833;29;20031;-74
2023/05/22 00:19:15;;;;;;;27.58;21.08;;;19.70;97.10;;;;;;4942686;29;20023;-74
2023/05/22 00:21:45;;;;;;;28.60;22.95;;;19.70;97.40;;;;;;4954101;29;20098;-74
2023/05/22 00:24:11;;;;;;;34.08;25.13;;;19.60;97.70;;;;;;4954082;29;20031;-74
2023/05/22 00:26:37;;;;;;;26.70;20.63;;;19.60;97.70;;;;;;4937132;29;20024;-71
2023/05/22 00:29:04;;;;;;;30.02;22.40;;;19.60;97.70;;;;;;4945044;29;20024;-73
2023/05/22 00:31:30;;;;;;;27.35;20.60;;;19.50;97.70;;;;;;4948126;29;20039;-75
2023/05/22 00:33:56;;;;;;;25.65;19.95;;;19.40;97.80;;;;;;4953947;29;20039;-74
2023/05/22 00:36:21;;;;;;;24.95;19.23;;;19.40;98.00;;;;;;4943765;28;20083;-74
2023/05/22 00:38:47;;;;;;;23.13;16.52;;;19.30;98.10;;;;;;4964841;28;20027;-74
2023/05/22 00:41:12;;;;;;;31.60;22.02;;;19.40;97.90;;;;;;4938838;29;20027;-75
2023/05/22 00:43:38;;;;;;;27.02;18.55;;;19.30;98.10;;;;;;4953421;28;20439;-74
2023/05/22 00:46:06;;;;;;;22.15;16.67;;;19.30;98.20;;;;;;4966707;28;20027;-74
2023/05/22 00:48:32;;;;;;;24.35;16.95;;;19.30;98.00;;;;;;4965418;28;20412;-75
2023/05/22 00:50:58;;;;;;;26.80;18.83;;;19.20;97.80;;;;;;4947838;28;20027;-75
2023/05/22 00:53:27;;;;;;;30.05;20.58;;;19.20;97.70;;;;;;4964203;28;20038;-75
2023/05/22 00:55:53;;;;;;;27.85;19.92;;;19.10;97.80;;;;;;4955271;28;20031;-74
2023/05/22 00:58:20;;;;;;;21.23;15.43;;;19.10;97.90;;;;;;4944684;29;20024;-74
2023/05/22 01:00:46;;;;;;;27.80;17.75;;;19.10;97.30;;;;;;4959235;28;20483;-75
2023/05/22 01:03:13;;;;;;;27.15;22.27;;;19.00;97.10;;;;;;4962086;28;20114;-73
2023/05/22 01:05:40;;;;;;;26.48;20.35;;;18.90;98.00;;;;;;4958945;28;20358;-74
2023/05/22 01:08:07;;;;;;;20.55;15.77;;;18.90;98.30;;;;;;4944947;29;20031;-73
2023/05/22 01:10:35;;;;;;;26.90;21.60;;;18.90;98.30;;;;;;4953418;28;20016;-73
2023/05/22 01:13:19;;;;;;;29.70;20.83;;;18.80;98.40;;;;;;4965268;28;20460;-75
2023/05/22 01:15:50;;;;;;;24.92;19.92;;;18.80;98.50;;;;;;4972886;28;20030;-75
2023/05/22 01:18:31;;;;;;;30.63;20.90;;;18.80;98.60;;;;;;4950681;29;20538;-73
2023/05/22 01:21:03;;;;;;;24.42;17.00;;;18.70;98.80;;;;;;4936676;28;20035;-75
2023/05/22 01:23:52;;;;;;;28.23;18.63;;;18.70;98.70;;;;;;4948581;28;20027;-75
2023/05/22 01:26:47;;;;;;;20.83;14.75;;;18.70;98.70;;;;;;4953996;28;20031;-73
2023/05/22 01:29:29;;;;;;;28.67;22.00;;;18.70;98.70;;;;;;4944944;28;20050;-75
2023/05/22 01:31:58;;;;;;;23.52;17.42;;;18.70;99.10;;;;;;4946578;28;20062;-75
2023/05/22 01:34:25;;;;;;;31.15;23.73;;;18.80;98.70;;;;;;4955607;28;20083;-74
2023/05/22 01:36:53;;;;;;;33.20;25.70;;;18.70;99.10;;;;;;4964254;28;20768;-75
2023/05/22 01:39:20;;;;;;;33.92;22.60;;;18.80;99.40;;;;;;4972598;28;20023;-75
2023/05/22 01:41:46;;;;;;;37.75;26.88;;;18.80;99.40;;;;;;4961776;28;20023;-74
2023/05/22 01:44:11;;;;;;;33.10;24.85;;;18.80;99.40;;;;;;4970592;28;20023;-74
2023/05/22 01:46:37;;;;;;;33.13;24.55;;;18.80;99.40;;;;;;4972696;28;20042;-73
2023/05/22 01:49:03;;;;;;;33.50;24.90;;;18.70;99.40;;;;;;4968325;28;20031;-74
2023/05/22 01:51:37;;;;;;;34.35;25.50;;;18.70;99.40;;;;;;4963375;28;20038;-75
2023/05/22 01:54:22;;;;;;;31.35;24.13;;;18.60;99.60;;;;;;4966225;28;20058;-73
2023/05/22 01:56:54;;;;;;;32.05;24.88;;;18.60;99.70;;;;;;4966269;28;20033;-75
2023/05/22 01:59:31;;;;;;;35.67;26.63;;;18.50;99.70;;;;;;4953774;28;20051;-73
2023/05/22 02:02:02;;;;;;;32.67;23.80;;;18.50;99.80;;;;;;4966835;28;20386;-73
2023/05/22 02:04:30;;;;;;;37.53;27.92;;;18.50;99.70;;;;;;4971408;28;20143;-73
2023/05/22 02:06:58;;;;;;;25.95;19.20;;;18.50;99.80;;;;;;4972668;28;20375;-74
2023/05/22 02:09:27;;;;;;;31.83;22.13;;;18.50;99.70;;;;;;4961608;28;20037;-74
2023/05/22 02:11:52;;;;;;;27.98;19.75;;;18.50;99.70;;;;;;4971312;28;20038;-75
2023/05/22 02:14:18;;;;;;;32.42;21.77;;;18.60;99.60;;;;;;4972374;28;20039;-74
2023/05/22 02:16:46;;;;;;;28.65;21.27;;;18.60;99.60;;;;;;4972458;28;20539;-75
2023/05/22 02:19:12;;;;;;;32.17;22.40;;;18.60;99.60;;;;;;4972145;28;20023;-74
2023/05/22 02:21:38;;;;;;;25.73;21.85;;;18.60;99.60;;;;;;4948736;29;20027;-73
2023/05/22 02:24:04;;;;;;;33.08;22.92;;;18.60;99.50;;;;;;4964972;28;20375;-74
2023/05/22 02:26:30;;;;;;;25.85;18.77;;;18.70;99.60;;;;;;4966238;28;20031;-74
2023/05/22 02:28:55;;;;;;;28.30;20.77;;;18.70;99.50;;;;;;4965070;28;20027;-74
2023/05/22 02:31:21;;;;;;;26.67;19.88;;;18.70;99.30;;;;;;4959390;28;20034;-74
2023/05/22 02:33:47;;;;;;;27.80;20.65;;;18.60;99.30;;;;;;4953673;28;20090;-74
2023/05/22 02:36:13;;;;;;;20.63;15.50;;;18.60;99.20;;;;;;4952849;28;20055;-74
2023/05/22 02:38:39;;;;;;;27.17;19.42;;;18.60;99.20;;;;;;4953318;28;20070;-74
2023/05/22 02:41:06;;;;;;;24.08;18.17;;;18.60;99.30;;;;;;4967392;28;20055;-75
2023/05/22 02:43:31;;;;;;;32.58;23.90;;;18.60;99.20;;;;;;4952497;28;20030;-75
2023/05/22 02:45:57;;;;;;;33.53;22.88;;;18.60;99.30;;;;;;4965711;28;20031;-75
2023/05/22 02:48:22;;;;;;;30.33;23.63;;;18.60;99.30;;;;;;4952914;28;20019;-74
2023/05/22 02:50:48;;;;;;;32.22;23.20;;;18.60;99.30;;;;;;4965170;28;20086;-74
2023/05/22 02:53:15;;;;;;;35.13;25.58;;;18.60;99.40;;;;;;4952407;28;20031;-74
2023/05/22 02:55:42;;;;;;;38.17;28.23;;;18.60;99.40;;;;;;4952019;28;20560;-74
2023/05/22 02:58:10;;;;;;;28.10;21.08;;;18.50;99.40;;;;;;4963363;28;20389;-75
2023/05/22 03:00:36;;;;;;;22.58;16.02;;;18.50;99.10;;;;;;4951938;28;20038;-74
2023/05/22 03:03:03;;;;;;;10.38;6.82;;;18.50;99.20;;;;;;4939270;29;20490;-74
2023/05/22 03:05:28;;;;;;;12.95;8.40;;;18.50;98.40;;;;;;4956925;28;20110;-75
2023/05/22 03:07:54;;;;;;;21.00;14.63;;;18.50;98.10;;;;;;4958564;28;20757;-75
2023/05/22 03:10:21;;;;;;;23.80;17.77;;;18.50;98.30;;;;;;4950807;28;20030;-74
2023/05/22 03:12:47;;;;;;;25.25;20.35;;;18.50;98.40;;;;;;4951666;28;20520;-74
2023/05/22 03:15:12;;;;;;;31.67;23.10;;;18.50;98.60;;;;;;4955684;28;20023;-74
2023/05/22 03:17:38;;;;;;;38.58;29.63;;;18.50;98.90;;;;;;4970018;28;20082;-75
2023/05/22 03:20:05;;;;;;;35.35;27.40;;;18.40;99.30;;;;;;4955030;28;20031;-74
2023/05/22 03:22:31;;;;;;;30.88;22.20;;;18.30;99.40;;;;;;4956195;28;20114;-74
2023/05/22 03:24:57;;;;;;;26.40;19.70;;;18.30;99.50;;;;;;4956777;28;20107;-74
2023/05/22 03:27:22;;;;;;;32.38;22.17;;;18.30;99.50;;;;;;4955294;28;20066;-74
2023/05/22 03:29:48;;;;;;;29.52;22.52;;;18.30;99.40;;;;;;4967882;28;20534;-74
2023/05/22 03:32:13;;;;;;;28.95;21.15;;;18.30;99.30;;;;;;4955779;28;20020;-73
2023/05/22 03:34:40;;;;;;;32.70;23.83;;;18.30;99.30;;;;;;4967829;28;20035;-74
2023/05/22 03:37:05;;;;;;;27.38;20.00;;;18.30;99.40;;;;;;4958417;28;20134;-73
2023/05/22 03:39:31;;;;;;;30.98;22.70;;;18.30;99.30;;;;;;4972160;28;20106;-72
2023/05/22 03:41:56;;;;;;;27.58;20.20;;;18.30;99.30;;;;;;4974200;28;20034;-75
2023/05/22 03:44:22;;;;;;;28.95;21.67;;;18.20;99.30;;;;;;4971265;28;20832;-73
2023/05/22 03:46:47;;;;;;;42.10;29.30;;;18.20;99.40;;;;;;4964436;28;20033;-74
2023/05/22 03:49:13;;;;;;;28.63;23.02;;;18.20;99.50;;;;;;4954010;29;20115;-73
2023/05/22 03:51:39;;;;;;;29.27;24.08;;;18.20;99.60;;;;;;4964626;28;20034;-74
2023/05/22 03:54:04;;;;;;;28.13;22.25;;;18.10;99.60;;;;;;4957338;28;20095;-74
2023/05/22 03:56:30;;;;;;;30.70;20.90;;;18.10;99.70;;;;;;4964370;28;20027;-75
2023/05/22 03:58:55;;;;;;;33.72;23.75;;;18.10;99.70;;;;;;4969488;28;20024;-74
2023/05/22 04:01:22;;;;;;;30.15;23.23;;;18.10;99.70;;;;;;4962500;28;20026;-74
2023/05/22 04:03:47;;;;;;;30.73;23.98;;;18.10;99.70;;;;;;4957642;28;20027;-74
2023/05/22 04:06:13;;;;;;;28.30;24.08;;;18.00;99.70;;;;;;4965164;28;20504;-74
2023/05/22 04:08:39;;;;;;;29.73;22.75;;;18.10;99.80;;;;;;4957816;28;20050;-74
2023/05/22 04:11:05;;;;;;;29.23;23.05;;;18.00;99.70;;;;;;4957930;28;20026;-75
2023/05/22 04:13:31;;;;;;;27.95;21.20;;;18.00;99.60;;;;;;4977382;28;20030;-75
2023/05/22 04:15:57;;;;;;;30.10;22.45;;;18.00;99.70;;;;;;4964174;28;20023;-73
2023/05/22 04:18:23;;;;;;;32.58;25.50;;;18.00;99.80;;;;;;4969226;28;20026;-74
2023/05/22 04:20:50;;;;;;;29.35;23.75;;;18.00;99.80;;;;;;4954898;28;20135;-73
2023/05/22 04:23:16;;;;;;;27.15;22.45;;;18.00;99.80;;;;;;4953498;28;20585;-75
2023/05/22 04:25:42;;;;;;;32.22;25.15;;;18.10;99.80;;;;;;4953388;28;20023;-73
2023/05/22 04:28:08;;;;;;;32.70;23.77;;;18.10;99.70;;;;;;4966735;28;20028;-74
2023/05/22 04:30:35;;;;;;;31.67;26.30;;;18.10;99.70;;;;;;4952582;28;20042;-74
2023/05/22 04:33:04;;;;;;;30.20;23.40;;;18.10;99.80;;;;;;4966662;28;20038;-75
2023/05/22 04:35:30;;;;;;;31.75;24.42;;;18.10;99.80;;;;;;4966539;28;20035;-74
2023/05/22 04:38:00;;;;;;;32.78;24.17;;;18.20;99.70;;;;;;4953504;28;20039;-74
2023/05/22 04:40:28;;;;;;;32.45;24.88;;;18.20;99.70;;;;;;4954305;28;20449;-74
2023/05/22 04:42:54;;;;;;;31.38;24.65;;;18.20;99.70;;;;;;4966313;28;20023;-73
2023/05/22 04:45:24;;;;;;;28.92;23.23;;;18.20;99.70;;;;;;4966734;28;20022;-74
2023/05/22 04:47:51;;;;;;;28.67;23.83;;;18.30;99.60;;;;;;4961686;28;20026;-75
2023/05/22 04:50:19;;;;;;;31.75;25.95;;;18.30;99.60;;;;;;4960560;28;20020;-74
2023/05/22 04:52:45;;;;;;;26.85;23.60;;;18.20;99.60;;;;;;4951818;29;20409;-75
2023/05/22 04:55:11;;;;;;;26.55;22.60;;;18.20;99.60;;;;;;4953250;28;20027;-74
2023/05/22 04:57:38;;;;;;;25.20;20.98;;;18.20;99.60;;;;;;4953702;28;20042;-73
2023/05/22 05:00:05;;;;;;;22.02;19.52;;;18.20;99.60;;;;;;4953777;28;20028;-74
2023/05/22 05:02:31;;;;;;;25.52;21.80;;;18.30;99.60;;;;;;4949530;28;20015;-74
2023/05/22 05:04:56;;;;;;;27.75;24.85;;;18.30;99.50;;;;;;4958651;28;20023;-74
2023/05/22 05:07:22;;;;;;;23.08;19.80;;;18.30;99.60;;;;;;4962209;28;20054;-73
2023/05/22 05:09:48;;;;;;;24.48;21.23;;;18.30;99.60;;;;;;4957597;28;20484;-75
2023/05/22 05:12:15;;;;;;;19.35;14.93;;;18.30;99.50;;;;;;4953882;28;20038;-74
2023/05/22 05:14:40;;;;;;;24.95;22.55;;;18.30;99.50;;;;;;4968805;28;20039;-74
2023/05/22 05:17:06;;;;;;;24.65;22.25;;;18.30;99.10;;;;;;4965119;28;20023;-74
2023/05/22 05:19:33;;;;;;;21.38;19.13;;;18.20;99.50;;;;;;4968952;28;20510;-73
2023/05/22 05:21:59;;;;;;;21.65;19.42;;;18.10;99.30;;;;;;4975836;28;20073;-73
2023/05/22 05:24:26;;;;;;;35.47;23.65;;;18.00;99.50;;;;;;4959663;28;20027;-73
2023/05/22 05:26:51;;;;;;;32.42;25.35;;;17.90;99.60;;;;;;4955502;28;20042;-74
2023/05/22 05:29:17;;;;;;;20.35;18.13;;;17.80;99.70;;;;;;4956504;28;20418;-73
2023/05/22 05:31:43;;;;;;;24.27;21.63;;;17.70;99.80;;;;;;4965951;28;20110;-74
2023/05/22 05:34:08;;;;;;;27.15;24.25;;;17.70;99.90;;;;;;4970512;28;20457;-74
2023/05/22 05:36:34;;;;;;;23.73;20.10;;;17.70;99.90;;;;;;4963825;28;20061;-74
2023/05/22 05:39:00;;;;;;;12.88;8.63;;;17.80;99.90;;;;;;4972094;28;20433;-72
2023/05/22 05:41:26;;;;;;;27.30;24.33;;;17.80;99.50;;;;;;4962279;28;20034;-73
2023/05/22 05:43:52;;;;;;;38.58;28.15;;;17.80;99.80;;;;;;4972697;28;20114;-74
2023/05/22 05:46:18;;;;;;;30.63;27.35;;;17.70;99.90;;;;;;4963194;28;20753;-74
2023/05/22 05:48:44;;;;;;;26.17;23.38;;;17.70;99.90;;;;;;4952743;28;20156;-74
2023/05/22 05:51:10;;;;;;;32.15;25.85;;;17.70;99.90;;;;;;4942908;28;20027;-73
2023/05/22 05:53:36;;;;;;;24.40;21.48;;;17.70;99.90;;;;;;4971451;28;20044;-75
2023/05/22 05:56:02;;;;;;;25.67;22.70;;;17.70;99.90;;;;;;4954738;28;20390;-74
2023/05/22 05:58:33;;;;;;;30.40;27.20;;;17.70;99.90;;;;;;5071274;27;1243437;-74
2023/05/22 06:00:59;;;;;;;24.25;20.90;;;17.70;99.90;;;;;;5103261;28;20486;-74
2023/05/22 06:03:25;;;;;;;26.88;24.00;;;17.70;99.90;;;;;;5092741;28;20374;-75
2023/05/22 06:05:51;;;;;;;24.33;21.45;;;17.80;99.90;;;;;;5096891;28;20020;-74
2023/05/22 06:08:18;;;;;;;29.73;26.52;;;17.90;99.90;;;;;;5094046;28;20096;-75
2023/05/22 06:10:45;;;;;;;31.02;27.73;;;18.10;99.90;;;;;;5091093;28;20077;-75
2023/05/22 06:13:11;;;;;;;30.10;26.95;;;18.20;99.90;;;;;;5096051;28;20020;-74
2023/05/22 06:15:36;;;;;;;30.48;26.83;;;18.20;99.90;;;;;;5096820;28;20032;-74
2023/05/22 06:18:02;;;;;;;27.63;24.73;;;18.20;99.90;;;;;;5068685;28;20037;-73
2023/05/22 06:20:28;;;;;;;23.25;20.40;;;18.20;99.90;;;;;;5068641;28;20382;-73
2023/05/22 06:22:53;;;;;;;22.23;16.65;;;18.30;99.90;;;;;;5086487;28;20033;-74
2023/05/22 06:25:19;;;;;;;16.67;13.80;;;18.40;99.90;;;;;;5069466;28;20482;-75
2023/05/22 06:27:46;;;;;;;17.77;15.13;;;18.60;99.90;;;;;;5091021;28;20091;-74
2023/05/22 06:30:15;;;;;;;20.95;17.30;;;18.70;99.90;;;;;;5095849;28;20031;-75
2023/05/22 06:32:41;;;;;;;20.60;18.00;;;18.90;99.90;;;;;;5090195;28;20505;-75
2023/05/22 06:35:07;;;;;;;21.85;19.15;;;19.00;99.90;;;;;;5107580;28;20035;-74
2023/05/22 06:37:34;;;;;;;19.88;16.42;;;19.10;99.90;;;;;;5105173;28;20079;-74
2023/05/22 06:40:00;;;;;;;23.98;19.77;;;19.10;99.80;;;;;;5076247;28;20049;-75
2023/05/22 06:42:26;;;;;;;21.35;17.85;;;19.20;99.70;;;;;;5079807;28;20029;-75
2023/05/22 06:44:51;;;;;;;20.25;17.90;;;19.20;99.60;;;;;;5077215;28;20669;-75
2023/05/22 06:47:18;;;;;;;19.10;16.98;;;19.30;99.70;;;;;;5082897;28;20025;-74
2023/05/22 06:49:44;;;;;;;21.70;17.70;;;19.40;99.50;;;;;;5086062;28;20482;-76
2023/05/22 06:52:10;;;;;;;19.42;16.73;;;19.40;99.30;;;;;;5065533;28;20028;-75
2023/05/22 06:54:35;;;;;;;13.80;11.23;;;19.50;99.30;;;;;;5066308;28;20028;-75
2023/05/22 06:57:02;;;;;;;26.77;23.35;;;19.70;99.30;;;;;;5067113;28;20052;-76
2023/05/22 06:59:29;;;;;;;27.95;23.13;;;19.90;99.00;;;;;;5070527;28;20017;-76
2023/05/22 07:01:55;;;;;;;22.83;20.45;;;20.00;98.00;;;;;;5073760;28;20024;-75
2023/05/22 07:04:21;;;;;;;29.52;26.40;;;20.20;97.80;;;;;;5083985;28;20058;-75
2023/05/22 07:06:47;;;;;;;23.45;20.65;;;20.40;97.50;;;;;;5074443;28;20035;-75
2023/05/22 07:09:14;;;;;;;25.88;22.83;;;20.50;97.80;;;;;;5055875;28;20050;-76
2023/05/22 07:11:41;;;;;;;28.38;25.35;;;20.60;97.70;;;;;;5052154;28;20483;-75
2023/05/22 07:14:07;;;;;;;19.48;16.92;;;20.50;97.70;;;;;;5061386;28;20024;-76
2023/05/22 07:16:33;;;;;;;27.50;24.70;;;20.70;97.80;;;;;;5047904;28;20029;-76
2023/05/22 07:18:58;;;;;;;21.38;18.40;;;20.80;97.60;;;;;;5050586;28;20181;-76
2023/05/22 07:21:24;;;;;;;19.98;17.88;;;21.00;97.50;;;;;;5057692;28;20495;-76
2023/05/22 07:23:52;;;;;;;27.88;23.88;;;21.20;97.80;;;;;;5070166;28;20024;-75
2023/05/22 07:26:18;;;;;;;27.25;24.45;;;21.20;97.00;;;;;;5061540;28;20029;-76
2023/05/22 07:28:44;;;;;;;20.30;17.92;;;21.40;96.90;;;;;;5057134;28;20391;-77
2023/05/22 07:31:10;;;;;;;21.27;16.50;;;21.50;96.90;;;;;;5068226;28;20020;-77
2023/05/22 07:33:35;;;;;;;25.35;22.42;;;21.60;96.80;;;;;;5062010;28;20032;-75
2023/05/22 07:36:01;;;;;;;25.98;21.85;;;21.80;96.30;;;;;;5062087;28;20037;-76
2023/05/22 07:38:27;;;;;;;22.27;19.88;;;21.90;96.40;;;;;;5063821;28;20070;-76
2023/05/22 07:40:52;;;;;;;23.40;20.90;;;22.00;96.30;;;;;;5047385;28;20118;-75
2023/05/22 07:43:18;;;;;;;14.75;12.35;;;22.10;95.60;;;;;;5060439;28;20032;-76
2023/05/22 07:45:44;;;;;;;19.95;15.73;;;22.20;95.20;;;;;;5061178;28;20012;-76
2023/05/22 07:48:10;;;;;;;21.35;19.05;;;22.40;95.20;;;;;;5043441;28;20023;-78
2023/05/22 07:50:36;;;;;;;16.23;14.40;;;22.50;95.10;;;;;;5065166;28;20017;-77
2023/05/22 07:53:03;;;;;;;14.98;12.55;;;22.60;95.20;;;;;;5043613;28;20031;-77
2023/05/22 07:55:29;;;;;;;12.23;9.45;;;22.80;94.50;;;;;;5063163;28;21133;-77
2023/05/22 07:57:55;;;;;;;10.90;8.93;;;22.90;93.60;;;;;;5060325;28;20071;-76
2023/05/22 08:00:21;;;;;;;16.08;14.35;;;22.90;92.60;;;;;;5059934;28;20106;-75
2023/05/22 08:02:47;;;;;;;21.58;15.35;;;23.10;93.30;;;;;;5044429;28;20032;-76
2023/05/22 08:05:12;;;;;;;18.50;15.77;;;23.20;93.50;;;;;;5058693;28;20028;-76
2023/05/22 08:07:40;;;;;;;9.57;7.72;;;23.40;93.60;;;;;;5063051;28;20483;-75
2023/05/22 08:10:13;;;;;;;11.95;10.48;;;23.50;91.90;;;;;;5059753;28;20467;-76
2023/05/22 08:12:39;;;;;;;17.00;15.13;;;23.60;91.30;;;;;;5042756;28;20033;-77
2023/05/22 08:15:07;;;;;;;14.52;12.45;;;23.70;92.20;;;;;;5055282;28;20379;-76
2023/05/22 08:17:32;;;;;;;18.58;15.18;;;23.80;92.20;;;;;;5057209;28;20043;-75
2023/05/22 08:19:58;;;;;;;19.15;14.82;;;24.00;91.70;;;;;;5056729;28;20017;-76
2023/05/22 08:22:24;;;;;;;19.60;17.52;;;24.10;91.50;;;;;;5058309;28;20505;-76
2023/05/22 08:24:49;;;;;;;16.40;14.38;;;24.20;91.30;;;;;;5040918;28;20106;-79
2023/05/22 08:27:15;;;;;;;20.35;18.25;;;24.30;91.30;;;;;;5037850;28;20017;-76
2023/05/22 08:29:41;;;;;;;19.88;17.83;;;24.50;91.20;;;;;;5053304;28;20024;-77
2023/05/22 08:32:06;;;;;;;21.48;19.17;;;24.60;90.70;;;;;;5061292;28;20025;-77
2023/05/22 08:34:32;;;;;;;16.42;14.73;;;24.60;90.80;;;;;;5056710;28;20035;-76
2023/05/22 08:36:58;;;;;;;23.33;19.65;;;24.70;90.30;;;;;;5057744;28;20025;-76
2023/05/22 08:39:24;;;;;;;12.25;9.98;;;24.70;90.10;;;;;;5057182;28;20154;-78
2023/05/22 08:41:50;;;;;;;11.68;10.30;;;24.70;89.80;;;;;;5036902;28;20108;-76
2023/05/22 08:44:18;;;;;;;21.50;19.20;;;24.90;90.00;;;;;;5053933;28;20021;-77
2023/05/22 08:46:44;;;;;;;20.58;17.30;;;25.00;90.10;;;;;;5055677;28;20174;-79
2023/05/22 08:49:11;;;;;;;14.85;13.27;;;25.10;89.80;;;;;;5054404;28;20020;-77
2023/05/22 08:51:38;;;;;;;14.35;11.65;;;25.30;89.50;;;;;;5059024;28;20029;-76
2023/05/22 08:54:06;;;;;;;18.38;16.13;;;25.40;88.60;;;;;;5054701;28;20032;-76
2023/05/22 08:56:33;;;;;;;11.65;9.20;;;25.60;89.40;;;;;;5059711;28;20017;-76
2023/05/22 08:59:01;;;;;;;16.83;14.85;;;25.80;86.90;;;;;;5059428;28;20025;-76
2023/05/22 09:01:28;;;;;;;14.35;9.75;;;25.80;87.00;;;;;;5056830;28;20066;-75
2023/05/22 09:04:00;;;;;;;12.27;10.98;;;25.90;86.10;;;;;;5055424;28;20025;-76
2023/05/22 09:06:28;;;;;;;12.40;9.68;;;25.90;86.10;;;;;;5052051;28;20021;-76
2023/05/22 09:08:54;;;;;;;14.27;12.77;;;25.90;86.50;;;;;;5056346;28;20021;-77
2023/05/22 09:11:20;;;;;;;16.95;15.15;;;26.00;85.30;;;;;;5059537;28;20009;-77
2023/05/22 09:13:46;;;;;;;16.52;14.27;;;26.10;84.70;;;;;;5039319;28;20028;-77
2023/05/22 09:16:12;;;;;;;15.95;11.27;;;26.20;84.10;;;;;;5041974;28;20031;-77
2023/05/22 09:18:40;;;;;;;15.80;13.65;;;26.40;84.00;;;;;;5060095;28;20032;-77
2023/05/22 09:21:06;;;;;;;10.00;8.43;;;26.50;83.10;;;;;;5056627;28;20020;-76
2023/05/22 09:23:32;;;;;;;10.02;8.82;;;26.50;84.30;;;;;;5055403;28;20029;-76
2023/05/22 09:25:59;;;;;;;10.52;9.23;;;26.40;84.20;;;;;;5060193;28;20395;-77
2023/05/22 09:28:26;;;;;;;11.88;9.90;;;26.20;84.10;;;;;;5058648;28;20025;-78
2023/05/22 09:30:54;;;;;;;14.00;10.63;;;26.20;83.80;;;;;;5043337;28;20024;-77
2023/05/22 09:33:21;;;;;;;10.57;8.10;;;26.20;84.40;;;;;;5057331;28;20025;-77
2023/05/22 09:35:48;;;;;;;13.18;10.82;;;26.50;85.40;;;;;;5053720;28;20040;-76
2023/05/22 09:38:16;;;;;;;9.68;8.18;;;26.70;82.10;;;;;;5058611;28;20093;-75
2023/05/22 09:40:41;;;;;;;14.10;10.05;;;26.90;82.70;;;;;;5041740;28;20030;-77
2023/05/22 09:43:09;;;;;;;9.38;7.32;;;27.10;75.50;;;;;;5059964;28;20024;-77
2023/05/22 09:45:35;;;;;;;12.23;7.90;;;27.40;75.20;;;;;;5057400;28;20033;-77
2023/05/22 09:48:05;;;;;;;8.23;6.60;;;27.60;75.90;;;;;;5061024;28;20064;-77
2023/05/22 09:50:34;;;;;;;9.75;7.72;;;27.80;76.10;;;;;;5057337;28;20024;-77
2023/05/22 09:53:02;;;;;;;12.13;10.82;;;27.90;78.80;;;;;;5055934;28;20095;-77
2023/05/22 09:55:28;;;;;;;12.18;9.15;;;28.10;74.40;;;;;;5055652;28;20021;-78
2023/05/22 09:57:55;;;;;;;7.97;6.95;;;28.10;71.80;;;;;;5049986;28;20063;-77
2023/05/22 10:00:23;;;;;;;11.45;9.88;;;28.20;77.30;;;;;;5043012;28;20021;-77
2023/05/22 10:03:04;;;;;;;8.52;7.15;;;28.20;74.80;;;;;;5059397;28;20021;-76
2023/05/22 10:05:31;;;;;;;9.27;7.32;;;28.00;80.00;;;;;;5057214;28;20020;-77
2023/05/22 10:08:03;;;;;;;11.27;8.85;;;27.80;81.90;;;;;;5052083;28;20091;-77
2023/05/22 10:10:31;;;;;;;15.57;10.85;;;27.40;80.20;;;;;;5054936;28;20024;-76
2023/05/22 10:13:02;;;;;;;12.68;10.15;;;27.20;78.60;;;;;;5040112;28;20017;-77
2023/05/22 10:15:28;;;;;;;10.43;8.18;;;27.10;77.20;;;;;;5056287;28;20039;-76
2023/05/22 10:17:55;;;;;;;10.38;7.82;;;27.00;82.70;;;;;;5052595;28;20090;-78
2023/05/22 10:20:21;;;;;;;9.80;8.30;;;26.90;82.80;;;;;;5054485;28;20021;-77
2023/05/22 10:22:49;;;;;;;13.52;11.38;;;26.80;82.50;;;;;;5031340;28;20013;-75
2023/05/22 10:25:22;;;;;;;13.75;12.35;;;26.70;79.20;;;;;;5057400;28;20029;-76
2023/05/22 10:27:51;;;;;;;15.70;13.60;;;26.80;77.60;;;;;;5056694;28;20878;-77
2023/05/22 10:30:29;;;;;;;11.10;9.90;;;27.00;75.30;;;;;;5053561;28;20195;-76
2023/05/22 10:33:07;;;;;;;10.60;9.10;;;27.30;74.00;;;;;;5050500;28;20174;-78
2023/05/22 10:35:42;;;;;;;14.70;12.13;;;27.80;76.80;;;;;;5038243;28;20115;-78
2023/05/22 10:38:25;;;;;;;16.65;13.02;;;28.10;75.30;;;;;;5059817;28;20044;-78
2023/05/22 10:40:51;;;;;;;11.25;9.00;;;28.30;73.10;;;;;;5055805;28;20025;-77
2023/05/22 10:43:19;;;;;;;13.02;9.75;;;28.20;77.40;;;;;;5052912;28;20021;-77
2023/05/22 10:45:46;;;;;;;10.07;7.90;;;27.90;76.40;;;;;;5054473;28;20051;-77
2023/05/22 10:48:12;;;;;;;11.65;8.38;;;27.70;81.50;;;;;;5042268;28;20056;-76
2023/05/22 10:50:39;;;;;;;11.75;10.07;;;27.50;83.90;;;;;;5063685;28;20052;-76
2023/05/22 10:53:31;;;;;;;9.95;7.60;;;27.30;79.80;;;;;;5061763;28;20672;-77
2023/05/22 10:56:01;;;;;;;15.23;11.30;;;27.10;84.10;;;;;;5046088;28;20028;-77
2023/05/22 10:58:31;;;;;;;15.90;12.50;;;27.00;77.60;;;;;;5064529;28;20061;-78
2023/05/22 11:01:19;;;;;;;11.50;9.27;;;26.90;77.00;;;;;;5042946;28;20029;-76
2023/05/22 11:03:55;;;;;;;11.50;9.95;;;26.90;78.70;;;;;;5063331;28;20029;-76
2023/05/22 11:06:46;;;;;;;11.60;9.07;;;27.10;80.80;;;;;;5080047;28;20059;-76
2023/05/22 11:09:19;;;;;;;15.35;13.48;;;27.50;80.60;;;;;;5069740;28;20024;-78
2023/05/22 11:11:45;;;;;;;15.95;12.18;;;27.80;75.60;;;;;;5061383;28;20025;-78
2023/05/22 11:14:14;;;;;;;11.18;8.35;;;28.10;76.80;;;;;;5070492;28;20024;-78
2023/05/22 11:16:40;;;;;;;10.48;8.48;;;28.30;77.70;;;;;;5064962;28;20029;-77
2023/05/22 11:19:08;;;;;;;14.15;11.95;;;28.40;78.20;;;;;;5075634;28;20487;-76
2023/05/22 11:21:44;;;;;;;13.20;10.38;;;28.40;75.80;;;;;;5050521;28;20083;-76
2023/05/22 11:24:11;;;;;;;13.90;12.50;;;28.10;73.40;;;;;;5051582;28;20037;-77
2023/05/22 11:26:41;;;;;;;13.15;10.32;;;28.00;72.80;;;;;;5057297;28;20025;-77
2023/05/22 11:29:07;;;;;;;12.25;9.23;;;28.00;73.80;;;;;;5064316;28;20119;-77
2023/05/22 11:31:35;;;;;;;11.27;9.23;;;28.30;76.80;;;;;;5068634;28;20494;-79
2023/05/22 11:34:01;;;;;;;8.90;7.82;;;28.40;76.80;;;;;;5066021;28;20028;-80
2023/05/22 11:36:28;;;;;;;10.90;9.07;;;28.50;80.30;;;;;;5056737;28;20036;-78
2023/05/22 11:39:00;;;;;;;14.05;12.48;;;28.40;80.00;;;;;;5046413;28;20032;-78
2023/05/22 11:41:32;;;;;;;9.88;8.35;;;28.30;73.60;;;;;;5055220;28;20136;-78
2023/05/22 11:43:59;;;;;;;10.50;8.95;;;28.10;77.00;;;;;;5051920;28;20120;-78
2023/05/22 11:46:25;;;;;;;10.65;8.80;;;28.00;76.70;;;;;;5051685;28;20029;-78
2023/05/22 11:48:52;;;;;;;9.38;7.82;;;27.80;78.80;;;;;;5040999;28;20025;-77
2023/05/22 11:51:20;;;;;;;9.48;7.40;;;27.80;81.30;;;;;;5045373;28;20483;-76
2023/05/22 11:53:46;;;;;;;10.43;8.75;;;27.70;82.50;;;;;;5069434;28;20050;-77
2023/05/22 11:56:11;;;;;;;8.82;7.47;;;27.70;81.50;;;;;;5064645;28;20052;-76
2023/05/22 11:58:37;;;;;;;14.00;10.95;;;27.60;81.80;;;;;;5056588;28;20049;-78
2023/05/22 12:01:03;;;;;;;10.27;9.18;;;27.60;77.60;;;;;;5061691;28;20785;-77
2023/05/22 12:03:30;;;;;;;9.98;8.65;;;27.50;80.80;;;;;;5068810;28;20053;-76
2023/05/22 12:05:56;;;;;;;15.77;12.48;;;27.50;80.50;;;;;;5066503;28;20479;-77
2023/05/22 12:08:23;;;;;;;11.43;10.23;;;27.50;77.30;;;;;;5055764;28;20061;-78
2023/05/22 12:10:50;;;;;;;13.88;11.50;;;27.60;75.20;;;;;;5052519;28;20029;-77
2023/05/22 12:13:28;;;;;;;11.77;9.18;;;27.80;74.90;;;;;;5056037;28;20042;-77
2023/05/22 12:15:58;;;;;;;11.18;10.02;;;27.90;74.10;;;;;;5058305;28;20029;-77
2023/05/22 12:18:24;;;;;;;13.27;11.82;;;27.90;77.50;;;;;;5053066;28;20156;-80
2023/05/22 12:20:56;;;;;;;11.60;8.77;;;27.90;73.00;;;;;;5050328;28;20021;-78
2023/05/22 12:23:30;;;;;;;10.90;8.77;;;27.70;76.30;;;;;;5055308;28;20094;-78
2023/05/22 12:26:00;;;;;;;15.13;12.52;;;27.70;79.70;;;;;;5051845;28;20021;-80
2023/05/22 12:28:27;;;;;;;12.48;9.00;;;27.60;76.70;;;;;;5055121;28;20457;-78
2023/05/22 12:30:54;;;;;;;10.13;9.10;;;27.50;76.10;;;;;;5062216;28;20024;-76